Time;durP1;ratioP1;P1;durP2;ratioP2;P2;SDS_P1;SDS_P2;PMS_P1;PMS_P2;Temp;Humidity;BMP_temperature;BMP_pressure;BME280_temperature;BME280_humidity;BME280_pressure;Samples;Min_cycle;Max_cycle;Signal;HPM_P1;HPM_P2
2023/05/23 00:02:12;;;;;;;0.20;0.20;;;;;;;;;;5087928;28;20078;-78
2023/05/23 00:04:38;;;;;;;0.13;0.13;;;;;;;;;;5090808;28;20056;-79
2023/05/23 00:07:05;;;;;;;0.50;0.50;;;;;;;;;;5089418;28;20523;-77
2023/05/23 00:09:31;;;;;;;0.52;0.40;;;;;;;;;;5088753;28;20110;-78
2023/05/23 00:11:58;;;;;;;0.10;0.10;;;;;;;;;;5089908;28;20052;-78
2023/05/23 00:14:24;;;;;;;0.28;0.22;;;;;;;;;;5071874;28;20152;-78
2023/05/23 00:16:51;;;;;;;4.30;0.73;;;;;;;;;;5072504;28;20049;-79
2023/05/23 00:19:17;;;;;;;0.20;0.20;;;;;;;;;;5087753;28;20049;-78
2023/05/23 00:21:49;;;;;;;0.10;0.10;;;;;;;;;;5089534;28;20901;-78
2023/05/23 00:24:19;;;;;;;0.10;0.10;;;;;;;;;;5087624;28;20139;-78
2023/05/23 00:26:45;;;;;;;0.73;0.38;;;;;;;;;;5071407;28;20049;-77
2023/05/23 00:29:15;;;;;;;0.63;0.63;;;;;;;;;;5087413;28;20053;-79
2023/05/23 00:31:55;;;;;;;0.10;0.10;;;;;;;;;;5081951;28;20057;-78
2023/05/23 00:34:21;;;;;;;0.30;0.30;;;;;;;;;;5088536;28;20513;-79
2023/05/23 00:36:49;;;;;;;0.30;0.30;;;;;;;;;;5071297;28;20048;-79
2023/05/23 00:39:18;;;;;;;0.57;0.40;;;;;;;;;;5088582;28;20612;-78
2023/05/23 00:41:47;;;;;;;0.98;0.88;;;;;;;;;;5088605;28;20047;-78
2023/05/23 00:44:18;;;;;;;;;;;;;;;;;;5089248;28;20119;-79
2023/05/23 00:46:48;;;;;;;0.45;0.45;;;;;;;;;;5088350;28;49950;-79
2023/05/23 00:49:18;;;;;;;0.25;0.25;;;;;;;;;;5089353;28;20576;-78
2023/05/23 00:51:45;;;;;;;0.10;0.10;;;;;;;;;;5061203;28;20545;-80
2023/05/23 00:54:12;;;;;;;0.35;0.35;;;;;;;;;;5086241;28;20040;-78
2023/05/23 00:56:38;;;;;;;3.20;0.50;;;;;;;;;;5089260;28;20584;-78
2023/05/23 00:59:06;;;;;;;0.20;0.20;;;;;;;;;;5089164;28;20060;-79
2023/05/23 01:01:32;;;;;;;0.85;0.50;;;;;;;;;;5087270;28;20114;-78
2023/05/23 01:04:01;;;;;;;0.47;0.40;;;;;;;;;;5087914;28;20994;-78
2023/05/23 01:06:35;;;;;;;0.17;0.17;;;;;;;;;;5088748;28;20052;-79
2023/05/23 01:09:02;;;;;;;0.10;0.10;;;;;;;;;;5088172;28;20064;-78
2023/05/23 01:11:34;;;;;;;0.10;0.10;;;;;;;;;;5086316;28;20063;-77
2023/05/23 01:14:11;;;;;;;0.10;0.10;;;;;;;;;;5086393;28;20064;-78
2023/05/23 01:16:37;;;;;;;0.68;0.68;;;;;;;;;;5071418;28;20502;-79
2023/05/23 01:19:19;;;;;;;1.02;0.40;;;;;;;;;;5088784;28;20059;-78
2023/05/23 01:21:51;;;;;;;0.30;0.30;;;;;;;;;;5086818;28;20132;-78
2023/05/23 01:24:18;;;;;;;0.10;0.10;;;;;;;;;;5088448;28;20053;-78
2023/05/23 01:26:50;;;;;;;1.05;0.77;;;;;;;;;;5089359;28;20048;-78
2023/05/23 01:29:35;;;;;;;0.40;0.40;;;;;;;;;;5070403;28;20465;-78
2023/05/23 01:32:05;;;;;;;0.20;0.20;;;;;;;;;;5087419;28;20161;-78
2023/05/23 01:34:33;;;;;;;0.20;0.20;;;;;;;;;;5089208;28;20251;-79
2023/05/23 01:37:00;;;;;;;0.10;0.10;;;;;;;;;;5087642;28;20053;-78
2023/05/23 01:39:26;;;;;;;0.10;0.10;;;;;;;;;;5087887;28;20032;-78
2023/05/23 01:41:53;;;;;;;0.10;0.10;;;;;;;;;;5087193;28;20063;-78
2023/05/23 01:44:20;;;;;;;0.10;0.10;;;;;;;;;;5088610;28;20778;-78
2023/05/23 01:46:47;;;;;;;0.10;0.10;;;;;;;;;;5086861;28;20148;-77
2023/05/23 01:49:14;;;;;;;1.48;0.63;;;;;;;;;;5088251;28;20060;-78
2023/05/23 01:51:41;;;;;;;0.30;0.30;;;;;;;;;;5067887;28;20053;-79
2023/05/23 01:54:07;;;;;;;0.10;0.10;;;;;;;;;;5087457;28;20086;-79
2023/05/23 01:56:34;;;;;;;0.20;0.20;;;;;;;;;;5088659;28;20135;-78
2023/05/23 01:59:01;;;;;;;0.10;0.10;;;;;;;;;;5086070;28;20083;-79
2023/05/23 02:01:28;;;;;;;0.20;0.20;;;;;;;;;;5086786;28;20311;-78
2023/05/23 02:03:55;;;;;;;0.10;0.10;;;;;;;;;;5088230;28;20052;-79
2023/05/23 02:06:21;;;;;;;0.40;0.40;;;;;;;;;;5087879;28;20041;-79
2023/05/23 02:08:47;;;;;;;0.28;0.28;;;;;;;;;;5085458;28;20139;-77
2023/05/23 02:11:14;;;;;;;0.28;0.28;;;;;;;;;;5087778;28;20056;-79
2023/05/23 02:13:41;;;;;;;0.20;0.20;;;;;;;;;;5068992;28;20049;-80
2023/05/23 02:16:07;;;;;;;0.30;0.28;;;;;;;;;;5069832;28;20110;-79
2023/05/23 02:18:36;;;;;;;0.10;0.10;;;;;;;;;;5088047;28;20490;-79
2023/05/23 02:21:04;;;;;;;0.20;0.20;;;;;;;;;;5087347;28;20100;-78
2023/05/23 02:23:30;;;;;;;0.10;0.10;;;;;;;;;;5087294;28;20580;-78
2023/05/23 02:25:57;;;;;;;0.20;0.20;;;;;;;;;;5086598;28;20053;-78
2023/05/23 02:28:24;;;;;;;0.10;0.10;;;;;;;;;;5083817;28;20112;-78
2023/05/23 02:30:50;;;;;;;0.15;0.15;;;;;;;;;;5064838;28;20143;-77
2023/05/23 02:33:17;;;;;;;0.20;0.20;;;;;;;;;;5088208;28;20584;-77
2023/05/23 02:35:46;;;;;;;0.10;0.10;;;;;;;;;;5088138;28;20060;-79
2023/05/23 02:38:13;;;;;;;0.20;0.20;;;;;;;;;;5087672;28;20237;-79
2023/05/23 02:40:39;;;;;;;0.13;0.13;;;;;;;;;;5087194;28;20124;-78
2023/05/23 02:43:06;;;;;;;0.55;0.45;;;;;;;;;;5069212;28;20564;-78
2023/05/23 02:45:38;;;;;;;0.10;0.10;;;;;;;;;;5086213;28;20056;-78
2023/05/23 02:48:05;;;;;;;0.15;0.15;;;;;;;;;;5086552;28;20044;-79
2023/05/23 02:50:31;;;;;;;0.25;0.25;;;;;;;;;;5086073;28;20061;-77
2023/05/23 02:52:58;;;;;;;0.15;0.15;;;;;;;;;;5085659;28;20048;-78
2023/05/23 02:55:24;;;;;;;0.73;0.30;;;;;;;;;;5087524;28;20110;-77
2023/05/23 02:57:51;;;;;;;0.10;0.10;;;;;;;;;;5069161;28;20048;-77
2023/05/23 03:00:17;;;;;;;0.20;0.20;;;;;;;;;;5085569;28;20823;-79
2023/05/23 03:02:46;;;;;;;0.30;0.30;;;;;;;;;;5085674;28;20618;-77
2023/05/23 03:05:13;;;;;;;0.10;0.10;;;;;;;;;;5085343;28;20545;-79
2023/05/23 03:07:39;;;;;;;0.20;0.20;;;;;;;;;;5087176;28;20087;-79
2023/05/23 03:10:06;;;;;;;0.30;0.30;;;;;;;;;;5081071;28;20187;-79
2023/05/23 03:12:36;;;;;;;1.67;0.98;;;;;;;;;;5086740;28;20048;-79
2023/05/23 03:15:03;;;;;;;0.15;0.15;;;;;;;;;;5090862;28;20052;-77
2023/05/23 03:17:29;;;;;;;0.20;0.20;;;;;;;;;;5089511;28;20057;-78
2023/05/23 03:19:56;;;;;;;0.75;0.73;;;;;;;;;;5090517;28;20056;-78
2023/05/23 03:22:22;;;;;;;0.20;0.20;;;;;;;;;;5089346;28;20052;-78
2023/05/23 03:24:49;;;;;;;0.47;0.43;;;;;;;;;;5090820;28;20056;-78
2023/05/23 03:27:15;;;;;;;0.20;0.20;;;;;;;;;;5090780;28;20052;-78
2023/05/23 03:29:42;;;;;;;0.20;0.20;;;;;;;;;;5088945;28;20052;-78
2023/05/23 03:32:11;;;;;;;0.30;0.30;;;;;;;;;;5089090;28;20137;-79
2023/05/23 03:34:44;;;;;;;0.45;0.35;;;;;;;;;;5087370;28;20052;-77
2023/05/23 03:37:14;;;;;;;0.20;0.20;;;;;;;;;;5072051;28;20067;-78
2023/05/23 03:39:41;;;;;;;;;;;;;;;;;;5090757;28;20053;-78
2023/05/23 03:42:08;;;;;;;0.10;0.10;;;;;;;;;;5087089;28;45144;-79
2023/05/23 03:44:34;;;;;;;0.30;0.30;;;;;;;;;;5070674;28;20162;-78
2023/05/23 03:47:01;;;;;;;0.15;0.15;;;;;;;;;;5069823;28;20057;-78
2023/05/23 03:49:27;;;;;;;0.10;0.10;;;;;;;;;;5073455;28;20059;-78
2023/05/23 03:51:54;;;;;;;0.30;0.30;;;;;;;;;;5088450;28;20048;-79
2023/05/23 03:54:20;;;;;;;0.35;0.30;;;;;;;;;;5090349;28;20159;-78
2023/05/23 03:56:46;;;;;;;0.10;0.10;;;;;;;;;;5089896;28;20252;-78
2023/05/23 03:59:13;;;;;;;0.20;0.20;;;;;;;;;;5088159;28;20088;-78
2023/05/23 04:01:39;;;;;;;0.52;0.22;;;;;;;;;;5088212;28;20136;-77
2023/05/23 04:04:06;;;;;;;0.35;0.28;;;;;;;;;;5088362;28;20708;-78
2023/05/23 04:06:32;;;;;;;0.10;0.10;;;;;;;;;;5089186;28;20049;-79
2023/05/23 04:09:00;;;;;;;0.20;0.20;;;;;;;;;;5089752;28;20139;-79
2023/05/23 04:11:29;;;;;;;0.10;0.10;;;;;;;;;;5088287;28;20679;-78
2023/05/23 04:13:55;;;;;;;0.10;0.10;;;;;;;;;;5089822;28;20072;-78
2023/05/23 04:16:22;;;;;;;0.32;0.32;;;;;;;;;;5090690;28;20153;-80
2023/05/23 04:18:49;;;;;;;0.20;0.20;;;;;;;;;;5089898;28;20568;-80
2023/05/23 04:21:15;;;;;;;0.10;0.10;;;;;;;;;;5085617;28;20056;-80
2023/05/23 04:23:42;;;;;;;0.20;0.20;;;;;;;;;;5089708;28;20139;-80
2023/05/23 04:26:09;;;;;;;0.20;0.20;;;;;;;;;;5087633;28;20104;-80
2023/05/23 04:28:36;;;;;;;0.55;0.40;;;;;;;;;;5090039;28;20056;-79
2023/05/23 04:31:02;;;;;;;0.35;0.35;;;;;;;;;;5089068;28;20072;-78
2023/05/23 04:33:29;;;;;;;0.93;0.40;;;;;;;;;;5089301;28;20144;-80
2023/05/23 04:35:56;;;;;;;0.20;0.20;;;;;;;;;;5088335;28;20950;-80
2023/05/23 04:38:24;;;;;;;2.63;0.68;;;;;;;;;;5089341;28;20096;-80
2023/05/23 04:40:53;;;;;;;0.45;0.45;;;;;;;;;;5071547;28;20142;-80
2023/05/23 04:43:20;;;;;;;0.10;0.10;;;;;;;;;;5089117;28;20088;-81
2023/05/23 04:45:48;;;;;;;0.10;0.10;;;;;;;;;;5088637;28;20049;-78
2023/05/23 04:48:16;;;;;;;0.10;0.10;;;;;;;;;;5091371;28;20052;-80
2023/05/23 04:50:43;;;;;;;0.10;0.10;;;;;;;;;;5087492;28;20052;-79
2023/05/23 04:53:09;;;;;;;0.10;0.10;;;;;;;;;;5089419;28;20510;-80
2023/05/23 04:55:36;;;;;;;0.30;0.20;;;;;;;;;;5089750;28;20140;-78
2023/05/23 04:58:02;;;;;;;0.57;0.52;;;;;;;;;;5088099;28;20207;-79
2023/05/23 05:00:32;;;;;;;1.02;0.30;;;;;;;;;;5070550;28;20138;-80
2023/05/23 05:02:59;;;;;;;0.28;0.20;;;;;;;;;;5089187;28;20114;-80
2023/05/23 05:05:25;;;;;;;0.20;0.20;;;;;;;;;;5088683;28;20106;-80
2023/05/23 05:07:51;;;;;;;0.45;0.20;;;;;;;;;;5088555;28;20599;-79
2023/05/23 05:10:21;;;;;;;0.17;0.17;;;;;;;;;;5089132;28;20053;-79
2023/05/23 05:12:50;;;;;;;0.30;0.30;;;;;;;;;;5088842;28;20086;-77
2023/05/23 05:15:18;;;;;;;0.30;0.30;;;;;;;;;;5086914;28;20080;-79
2023/05/23 05:17:45;;;;;;;0.10;0.10;;;;;;;;;;5087991;28;20055;-79
2023/05/23 05:20:15;;;;;;;0.17;0.17;;;;;;;;;;5085035;28;20057;-80
2023/05/23 05:22:42;;;;;;;0.10;0.10;;;;;;;;;;5088070;28;20766;-80
2023/05/23 05:25:09;;;;;;;0.93;0.57;;;;;;;;;;5070169;28;20047;-80
2023/05/23 05:27:38;;;;;;;1.42;0.45;;;;;;;;;;5087180;28;20080;-78
2023/05/23 05:30:11;;;;;;;0.10;0.10;;;;;;;;;;5085154;28;20059;-79
2023/05/23 05:32:37;;;;;;;0.10;0.10;;;;;;;;;;5089274;28;20130;-80
2023/05/23 05:35:07;;;;;;;0.10;0.10;;;;;;;;;;5087987;28;20056;-78
2023/05/23 05:37:36;;;;;;;0.10;0.10;;;;;;;;;;5067698;28;20120;-78
2023/05/23 05:40:07;;;;;;;0.10;0.10;;;;;;;;;;5084848;28;20169;-78
2023/05/23 05:42:33;;;;;;;0.20;0.20;;;;;;;;;;5087377;28;20056;-79
2023/05/23 05:45:00;;;;;;;0.10;0.10;;;;;;;;;;5088595;28;20098;-80
2023/05/23 05:47:27;;;;;;;0.10;0.10;;;;;;;;;;5088090;28;20068;-78
2023/05/23 05:49:54;;;;;;;0.10;0.10;;;;;;;;;;5079692;28;20070;-79
2023/05/23 05:52:20;;;;;;;0.20;0.20;;;;;;;;;;5081600;28;20515;-79
2023/05/23 05:54:47;;;;;;;0.10;0.10;;;;;;;;;;5151470;22;20647;-78
2023/05/23 05:57:13;;;;;;;0.10;0.10;;;;;;;;;;5066886;28;20052;-79
2023/05/23 05:59:40;;;;;;;0.20;0.20;;;;;;;;;;5087062;28;20052;-79
2023/05/23 06:02:07;;;;;;;0.10;0.10;;;;;;;;;;5087724;28;20053;-78
2023/05/23 06:04:33;;;;;;;0.22;0.22;;;;;;;;;;5088398;28;20138;-79
2023/05/23 06:06:59;;;;;;;0.10;0.10;;;;;;;;;;5086563;28;20107;-79
2023/05/23 06:09:26;;;;;;;0.25;0.22;;;;;;;;;;5060854;28;20515;-79
2023/05/23 06:11:55;;;;;;;0.10;0.10;;;;;;;;;;5089362;28;20078;-79
2023/05/23 06:14:24;;;;;;;0.30;0.30;;;;;;;;;;5088560;28;20131;-79
2023/05/23 06:16:51;;;;;;;0.10;0.10;;;;;;;;;;5087028;28;20064;-79
2023/05/23 06:19:23;;;;;;;0.10;0.10;;;;;;;;;;5087777;28;20052;-79
2023/05/23 06:21:50;;;;;;;0.43;0.35;;;;;;;;;;5086343;28;20083;-78
2023/05/23 06:24:16;;;;;;;0.10;0.10;;;;;;;;;;5087343;28;20098;-78
2023/05/23 06:26:42;;;;;;;0.35;0.25;;;;;;;;;;5084394;28;20056;-77
2023/05/23 06:29:09;;;;;;;0.35;0.32;;;;;;;;;;5086025;28;20143;-80
2023/05/23 06:31:35;;;;;;;0.10;0.10;;;;;;;;;;5086110;28;20540;-80
2023/05/23 06:34:02;;;;;;;1.13;0.73;;;;;;;;;;5082646;28;20056;-79
2023/05/23 06:36:28;;;;;;;0.43;0.43;;;;;;;;;;5085570;28;20057;-79
2023/05/23 06:38:57;;;;;;;0.20;0.20;;;;;;;;;;5083058;28;21163;-78
2023/05/23 06:41:26;;;;;;;0.10;0.10;;;;;;;;;;5083361;28;20062;-78
2023/05/23 06:43:52;;;;;;;0.10;0.10;;;;;;;;;;5082410;28;20084;-79
2023/05/23 06:46:21;;;;;;;0.15;0.15;;;;;;;;;;5083929;28;20049;-78
2023/05/23 06:48:48;;;;;;;0.10;0.10;;;;;;;;;;5085724;28;20044;-78
2023/05/23 06:51:32;;;;;;;0.13;0.13;;;;;;;;;;5084612;28;20098;-79
2023/05/23 06:53:58;;;;;;;0.30;0.30;;;;;;;;;;5088386;28;20061;-79
2023/05/23 06:56:25;;;;;;;0.10;0.10;;;;;;;;;;5087009;28;20084;-77
2023/05/23 06:58:51;;;;;;;0.10;0.10;;;;;;;;;;5090050;28;20072;-78
2023/05/23 07:01:17;;;;;;;1.35;0.60;;;;;;;;;;5087758;28;20072;-79
2023/05/23 07:03:44;;;;;;;0.20;0.20;;;;;;;;;;5086484;28;20433;-77
2023/05/23 07:06:11;;;;;;;0.20;0.20;;;;;;;;;;5088300;28;20413;-77
2023/05/23 07:08:37;;;;;;;0.10;0.10;;;;;;;;;;5085922;28;20052;-78
2023/05/23 07:11:05;;;;;;;0.35;0.30;;;;;;;;;;5087583;28;20125;-76
2023/05/23 07:13:32;;;;;;;0.20;0.20;;;;;;;;;;5071092;28;20092;-77
2023/05/23 07:15:58;;;;;;;0.22;0.20;;;;;;;;;;5085097;28;20056;-80
2023/05/23 07:18:25;;;;;;;1.00;0.50;;;;;;;;;;5085424;28;20067;-79
2023/05/23 07:20:52;;;;;;;0.10;0.10;;;;;;;;;;5089771;28;20060;-78
2023/05/23 07:23:21;;;;;;;1.15;0.65;;;;;;;;;;5087347;28;20051;-78
2023/05/23 07:25:48;;;;;;;0.43;0.43;;;;;;;;;;5085567;28;20048;-76
2023/05/23 07:28:28;;;;;;;0.10;0.10;;;;;;;;;;5086937;28;20060;-77
2023/05/23 07:30:56;;;;;;;0.10;0.10;;;;;;;;;;5087656;28;20036;-77
2023/05/23 07:33:23;;;;;;;0.10;0.10;;;;;;;;;;5086918;28;20269;-78
2023/05/23 07:35:50;;;;;;;0.10;0.10;;;;;;;;;;5086501;28;20232;-75
2023/05/23 07:38:16;;;;;;;0.10;0.10;;;;;;;;;;5086010;28;20045;-77
2023/05/23 07:40:43;;;;;;;0.10;0.10;;;;;;;;;;5067858;28;20105;-77
2023/05/23 07:43:15;;;;;;;0.10;0.10;;;;;;;;;;5089665;28;20060;-77
2023/05/23 07:45:41;;;;;;;0.10;0.10;;;;;;;;;;5087600;28;20056;-77
2023/05/23 07:48:08;;;;;;;0.43;0.20;;;;;;;;;;5086248;28;20536;-78
2023/05/23 07:50:35;;;;;;;0.10;0.10;;;;;;;;;;5066893;28;20141;-75
2023/05/23 07:53:02;;;;;;;0.10;0.10;;;;;;;;;;5083102;28;20612;-76
2023/05/23 07:58:11;;;;;;;0.10;0.10;;;;;;;;;;5445709;22;19928;-76
2023/05/23 08:00:37;;;;;;;0.10;0.10;;;;;;;;;;5078938;28;20060;-74
2023/05/23 08:03:04;;;;;;;0.40;0.40;;;;;;;;;;5082627;28;20053;-77
2023/05/23 08:05:31;;;;;;;0.10;0.10;;;;;;;;;;5068629;28;20128;-75
2023/05/23 08:07:57;;;;;;;0.65;0.43;;;;;;;;;;5062162;28;20156;-75
2023/05/23 08:10:27;;;;;;;0.10;0.10;;;;;;;;;;5069417;28;20049;-75
2023/05/23 08:12:53;;;;;;;0.10;0.10;;;;;;;;;;5055151;28;20088;-75
2023/05/23 08:15:22;;;;;;;0.10;0.10;;;;;;;;;;5061851;28;20064;-76
2023/05/23 08:17:48;;;;;;;1.20;0.43;;;;;;;;;;5061695;28;20045;-74
2023/05/23 08:20:15;;;;;;;2.03;1.42;;;;;;;;;;5064268;28;20057;-77
2023/05/23 08:22:41;;;;;;;0.90;0.90;;;;;;;;;;5064084;28;20131;-75
2023/05/23 08:25:08;;;;;;;0.10;0.10;;;;;;;;;;5065850;28;20053;-75
2023/05/23 08:27:35;;;;;;;0.10;0.10;;;;;;;;;;5065554;28;20439;-74
2023/05/23 08:30:03;;;;;;;0.10;0.10;;;;;;;;;;5063226;28;20491;-75
2023/05/23 08:32:30;;;;;;;0.10;0.10;;;;;;;;;;5065345;28;20135;-76
2023/05/23 08:34:57;;;;;;;0.85;0.45;;;;;;;;;;5062121;28;20057;-75
2023/05/23 08:37:23;;;;;;;0.20;0.20;;;;;;;;;;5044625;28;20053;-76
2023/05/23 08:39:51;;;;;;;0.10;0.10;;;;;;;;;;5059192;28;20060;-74
2023/05/23 08:42:21;;;;;;;0.10;0.10;;;;;;;;;;5065199;28;20059;-75
2023/05/23 08:44:47;;;;;;;2.13;1.95;;;;;;;;;;5052204;28;20062;-78
2023/05/23 08:47:18;;;;;;;0.10;0.10;;;;;;;;;;5046390;28;20053;-76
2023/05/23 08:49:45;;;;;;;0.10;0.10;;;;;;;;;;5048330;28;20131;-79
2023/05/23 08:52:15;;;;;;;0.10;0.10;;;;;;;;;;5051333;28;20085;-74
2023/05/23 08:54:42;;;;;;;0.10;0.10;;;;;;;;;;5046895;28;20085;-76
2023/05/23 08:57:09;;;;;;;0.10;0.10;;;;;;;;;;5046742;28;20126;-77
2023/05/23 08:59:37;;;;;;;0.10;0.10;;;;;;;;;;5059902;28;20052;-75
2023/05/23 09:02:07;;;;;;;0.47;0.45;;;;;;;;;;5067543;28;20076;-77
2023/05/23 09:04:33;;;;;;;0.32;0.32;;;;;;;;;;5066406;28;20053;-74
2023/05/23 09:07:00;;;;;;;2.45;0.40;;;;;;;;;;5066175;28;20503;-76
2023/05/23 09:09:26;;;;;;;0.10;0.10;;;;;;;;;;5065776;28;20048;-75
2023/05/23 09:11:54;;;;;;;0.10;0.10;;;;;;;;;;5068628;28;20060;-76
2023/05/23 09:14:21;;;;;;;0.10;0.10;;;;;;;;;;5067801;28;20056;-76
2023/05/23 09:16:49;;;;;;;0.10;0.10;;;;;;;;;;5079236;28;20604;-77
2023/05/23 09:19:17;;;;;;;1.67;0.35;;;;;;;;;;5066377;28;20100;-75
2023/05/23 09:21:44;;;;;;;6.25;0.43;;;;;;;;;;5063060;28;20063;-75
2023/05/23 09:24:11;;;;;;;0.10;0.10;;;;;;;;;;5065644;28;20592;-74
2023/05/23 09:26:37;;;;;;;0.40;0.32;;;;;;;;;;5071630;28;20053;-76
2023/05/23 09:29:04;;;;;;;0.20;0.20;;;;;;;;;;5065677;28;20057;-76
2023/05/23 09:31:33;;;;;;;0.52;0.30;;;;;;;;;;5066531;28;20507;-76
2023/05/23 09:34:00;;;;;;;0.70;0.40;;;;;;;;;;5065336;28;20092;-75
2023/05/23 09:36:33;;;;;;;0.30;0.30;;;;;;;;;;5067187;28;20144;-76
2023/05/23 09:39:02;;;;;;;5.15;1.00;;;;;;;;;;5062601;28;20049;-76
2023/05/23 09:41:30;;;;;;;0.25;0.25;;;;;;;;;;5051547;28;20057;-75
2023/05/23 09:43:56;;;;;;;0.10;0.10;;;;;;;;;;5069693;28;20076;-76
2023/05/23 09:46:26;;;;;;;0.10;0.10;;;;;;;;;;5046847;28;20064;-76
2023/05/23 09:48:54;;;;;;;1.27;1.17;;;;;;;;;;5063059;28;20075;-75
2023/05/23 09:51:21;;;;;;;0.63;0.63;;;;;;;;;;5046451;28;20502;-76
2023/05/23 09:53:48;;;;;;;0.90;0.40;;;;;;;;;;5056267;28;20084;-74
2023/05/23 09:56:16;;;;;;;0.10;0.10;;;;;;;;;;5064855;28;20045;-75
2023/05/23 09:58:46;;;;;;;4.80;0.50;;;;;;;;;;5042902;28;20056;-74
2023/05/23 10:01:13;;;;;;;2.25;0.15;;;;;;;;;;5061316;28;20106;-77
2023/05/23 10:03:49;;;;;;;0.10;0.10;;;;;;;;;;5071523;28;20114;-76
2023/05/23 10:06:22;;;;;;;13.15;3.28;;;;;;;;;;5063011;28;20064;-76
2023/05/23 10:08:53;;;;;;;0.15;0.15;;;;;;;;;;5043462;28;20048;-78
2023/05/23 10:11:43;;;;;;;0.20;0.20;;;;;;;;;;5060776;28;20095;-76
2023/05/23 10:14:10;;;;;;;0.20;0.20;;;;;;;;;;5058689;28;20048;-77
2023/05/23 10:16:48;;;;;;;0.40;0.38;;;;;;;;;;5063813;28;20068;-75
2023/05/23 10:19:22;;;;;;;0.30;0.30;;;;;;;;;;5050310;28;20135;-76
2023/05/23 10:21:51;;;;;;;0.38;0.38;;;;;;;;;;5054698;28;20090;-74
2023/05/23 10:24:17;;;;;;;0.30;0.30;;;;;;;;;;5063399;28;20136;-76
2023/05/23 10:26:44;;;;;;;0.45;0.45;;;;;;;;;;5063502;28;20053;-76
2023/05/23 10:29:11;;;;;;;0.50;0.30;;;;;;;;;;5082567;28;20058;-76
2023/05/23 10:31:38;;;;;;;0.20;0.20;;;;;;;;;;5067346;28;20166;-76
2023/05/23 10:34:10;;;;;;;0.20;0.20;;;;;;;;;;5061710;28;20053;-75
2023/05/23 10:36:42;;;;;;;0.20;0.20;;;;;;;;;;5061345;28;20064;-75
2023/05/23 10:39:13;;;;;;;0.20;0.20;;;;;;;;;;5058800;28;20527;-75
2023/05/23 10:41:47;;;;;;;0.30;0.30;;;;;;;;;;5063349;28;21045;-75
2023/05/23 10:44:26;;;;;;;0.20;0.20;;;;;;;;;;5063226;28;20057;-76
2023/05/23 10:46:53;;;;;;;0.10;0.10;;;;;;;;;;5062315;28;20136;-75
2023/05/23 10:49:21;;;;;;;0.10;0.10;;;;;;;;;;5043899;28;20132;-76
2023/05/23 10:51:49;;;;;;;0.10;0.10;;;;;;;;;;5037200;28;20060;-76
2023/05/23 10:54:19;;;;;;;0.20;0.20;;;;;;;;;;5063831;28;20064;-76
2023/05/23 10:56:47;;;;;;;0.55;0.55;;;;;;;;;;5048270;28;20056;-76
2023/05/23 10:59:18;;;;;;;0.20;0.20;;;;;;;;;;5064666;28;20944;-76
2023/05/23 11:01:45;;;;;;;0.10;0.10;;;;;;;;;;5061287;28;20049;-77
2023/05/23 11:04:11;;;;;;;0.20;0.20;;;;;;;;;;5080475;28;20126;-77
2023/05/23 11:06:43;;;;;;;0.30;0.20;;;;;;;;;;5071345;28;20061;-76
2023/05/23 11:09:17;;;;;;;0.20;0.20;;;;;;;;;;5055536;28;20076;-74
2023/05/23 11:11:47;;;;;;;0.13;0.13;;;;;;;;;;5074167;28;20051;-75
2023/05/23 11:14:14;;;;;;;1.08;0.52;;;;;;;;;;5077946;28;20052;-76
2023/05/23 11:16:41;;;;;;;0.43;0.30;;;;;;;;;;5063760;28;20060;-74
2023/05/23 11:19:16;;;;;;;0.20;0.20;;;;;;;;;;5064735;28;20053;-75
2023/05/23 11:21:44;;;;;;;0.20;0.20;;;;;;;;;;5079136;28;20056;-76
2023/05/23 11:24:11;;;;;;;0.17;0.17;;;;;;;;;;5064289;28;20096;-74
2023/05/23 11:26:37;;;;;;;0.40;0.40;;;;;;;;;;5071900;28;20515;-76
2023/05/23 11:29:08;;;;;;;0.15;0.15;;;;;;;;;;5040994;28;20080;-76
2023/05/23 11:31:37;;;;;;;4.78;0.70;;;;;;;;;;5060557;28;20527;-76
2023/05/23 11:34:05;;;;;;;0.20;0.20;;;;;;;;;;5060055;28;20059;-75
2023/05/23 11:36:32;;;;;;;0.52;0.40;;;;;;;;;;5059860;28;20057;-76
2023/05/23 11:39:02;;;;;;;0.20;0.20;;;;;;;;;;5059384;28;20057;-74
2023/05/23 11:41:29;;;;;;;0.20;0.20;;;;;;;;;;5068543;28;20597;-75
2023/05/23 11:43:57;;;;;;;0.30;0.30;;;;;;;;;;5050474;28;20092;-76
2023/05/23 11:46:24;;;;;;;0.15;0.15;;;;;;;;;;5066395;28;20057;-76
2023/05/23 11:48:50;;;;;;;0.25;0.25;;;;;;;;;;5064081;28;20078;-76
2023/05/23 11:51:20;;;;;;;2.35;2.15;;;;;;;;;;5068271;28;20048;-75
2023/05/23 11:53:47;;;;;;;2.40;0.30;;;;;;;;;;5051768;28;20049;-75
2023/05/23 11:56:15;;;;;;;0.25;0.25;;;;;;;;;;5064673;28;20106;-76
2023/05/23 11:58:43;;;;;;;0.10;0.10;;;;;;;;;;5047806;28;20081;-75
2023/05/23 12:01:11;;;;;;;0.17;0.17;;;;;;;;;;5066519;28;20059;-75
2023/05/23 12:03:45;;;;;;;0.35;0.35;;;;;;;;;;5066490;28;20053;-75
2023/05/23 12:06:15;;;;;;;0.10;0.10;;;;;;;;;;5064176;28;20049;-75
2023/05/23 12:08:42;;;;;;;2.15;0.32;;;;;;;;;;5052698;28;20121;-75
2023/05/23 12:11:08;;;;;;;0.47;0.30;;;;;;;;;;5065601;28;20080;-74
2023/05/23 12:13:35;;;;;;;0.10;0.10;;;;;;;;;;5065672;28;20816;-76
2023/05/23 12:16:03;;;;;;;0.10;0.10;;;;;;;;;;5064547;28;20060;-75
2023/05/23 12:18:30;;;;;;;0.20;0.20;;;;;;;;;;5070408;28;20048;-75
2023/05/23 12:21:01;;;;;;;0.10;0.10;;;;;;;;;;5067989;28;20165;-76
2023/05/23 12:23:28;;;;;;;2.92;2.28;;;;;;;;;;5065070;28;20110;-75
2023/05/23 12:25:58;;;;;;;0.13;0.13;;;;;;;;;;5065166;28;20661;-76
2023/05/23 12:28:37;;;;;;;0.40;0.40;;;;;;;;;;5065689;28;20063;-76
2023/05/23 12:31:16;;;;;;;0.10;0.10;;;;;;;;;;5065919;28;20577;-76
2023/05/23 12:33:44;;;;;;;0.20;0.20;;;;;;;;;;5066102;28;20958;-75
2023/05/23 12:36:11;;;;;;;1.33;1.23;;;;;;;;;;5047523;28;20080;-76
2023/05/23 12:38:39;;;;;;;0.20;0.20;;;;;;;;;;5065526;28;20051;-76
2023/05/23 12:41:06;;;;;;;0.50;0.50;;;;;;;;;;5064765;28;20060;-75
2023/05/23 12:43:36;;;;;;;0.65;0.65;;;;;;;;;;5064847;28;20053;-76
2023/05/23 12:46:02;;;;;;;0.20;0.20;;;;;;;;;;5067896;28;20064;-75
2023/05/23 12:48:29;;;;;;;0.47;0.35;;;;;;;;;;5071395;28;20288;-77
2023/05/23 12:50:55;;;;;;;0.30;0.30;;;;;;;;;;5075189;28;20526;-75
2023/05/23 12:53:22;;;;;;;0.20;0.20;;;;;;;;;;5086674;28;20055;-75
2023/05/23 12:55:50;;;;;;;0.20;0.20;;;;;;;;;;5069797;28;20053;-75
2023/05/23 12:58:17;;;;;;;0.20;0.20;;;;;;;;;;5062808;28;20045;-77
2023/05/23 13:00:44;;;;;;;0.17;0.17;;;;;;;;;;5067895;28;20151;-77
2023/05/23 13:03:10;;;;;;;0.32;0.32;;;;;;;;;;5069268;28;20131;-75
2023/05/23 13:05:37;;;;;;;1.27;0.35;;;;;;;;;;5070323;28;20129;-76
2023/05/23 13:08:05;;;;;;;0.20;0.20;;;;;;;;;;5065846;28;20061;-76
2023/05/23 13:10:31;;;;;;;0.20;0.20;;;;;;;;;;5066262;28;20056;-76
2023/05/23 13:12:58;;;;;;;0.20;0.20;;;;;;;;;;5064035;28;20045;-78
2023/05/23 13:15:25;;;;;;;0.10;0.10;;;;;;;;;;5047021;28;20911;-77
2023/05/23 13:17:51;;;;;;;0.10;0.10;;;;;;;;;;5067481;28;20096;-77
2023/05/23 13:20:18;;;;;;;0.10;0.10;;;;;;;;;;5067336;28;20049;-76
2023/05/23 13:22:44;;;;;;;9.13;1.95;;;;;;;;;;5064855;28;20144;-77
2023/05/23 13:25:11;;;;;;;0.45;0.30;;;;;;;;;;5061785;28;20048;-77
2023/05/23 13:27:37;;;;;;;13.43;0.90;;;;;;;;;;5068137;28;20171;-77
2023/05/23 13:30:05;;;;;;;0.20;0.20;;;;;;;;;;5064309;28;20580;-76
2023/05/23 13:32:31;;;;;;;0.20;0.20;;;;;;;;;;5065334;28;20053;-77
2023/05/23 13:34:58;;;;;;;0.20;0.20;;;;;;;;;;5066357;28;20067;-76
2023/05/23 13:37:24;;;;;;;0.17;0.17;;;;;;;;;;5061548;28;20111;-76
2023/05/23 13:39:51;;;;;;;0.10;0.10;;;;;;;;;;5046520;28;20438;-76
2023/05/23 13:42:17;;;;;;;0.30;0.30;;;;;;;;;;5064439;28;20076;-76
2023/05/23 13:44:44;;;;;;;0.20;0.20;;;;;;;;;;5062095;28;20053;-77
2023/05/23 13:47:11;;;;;;;0.20;0.20;;;;;;;;;;5062564;28;20075;-78
2023/05/23 13:49:39;;;;;;;0.32;0.30;;;;;;;;;;5046563;28;20059;-76
2023/05/23 13:52:05;;;;;;;0.10;0.10;;;;;;;;;;5063092;28;20606;-77
2023/05/23 13:54:32;;;;;;;0.22;0.22;;;;;;;;;;5061903;28;20081;-76
2023/05/23 13:57:00;;;;;;;0.43;0.43;;;;;;;;;;5065914;28;20057;-76
2023/05/23 13:59:26;;;;;;;0.10;0.10;;;;;;;;;;5061578;28;20049;-78
2023/05/23 14:01:53;;;;;;;0.47;0.47;;;;;;;;;;5065060;28;20057;-77
2023/05/23 14:04:20;;;;;;;0.70;0.40;;;;;;;;;;5064053;28;20059;-77
2023/05/23 14:06:46;;;;;;;0.20;0.20;;;;;;;;;;5063313;28;20060;-76
2023/05/23 14:09:13;;;;;;;0.10;0.10;;;;;;;;;;5063838;28;20135;-78
2023/05/23 14:11:39;;;;;;;0.55;0.45;;;;;;;;;;5064014;28;20052;-77
2023/05/23 14:14:06;;;;;;;0.20;0.20;;;;;;;;;;5068738;28;20080;-78
2023/05/23 14:16:32;;;;;;;0.20;0.20;;;;;;;;;;5063698;28;20053;-77
2023/05/23 14:18:59;;;;;;;0.13;0.13;;;;;;;;;;5063733;28;20059;-76
2023/05/23 14:21:27;;;;;;;0.20;0.20;;;;;;;;;;5063752;28;20059;-78
2023/05/23 14:23:53;;;;;;;0.10;0.10;;;;;;;;;;5063292;28;20103;-76
2023/05/23 14:26:21;;;;;;;0.10;0.10;;;;;;;;;;5063484;28;20060;-75
2023/05/23 14:28:47;;;;;;;0.20;0.20;;;;;;;;;;5076963;28;20056;-75
2023/05/23 14:31:14;;;;;;;0.20;0.20;;;;;;;;;;5072118;28;20060;-76
2023/05/23 14:33:40;;;;;;;0.30;0.30;;;;;;;;;;5065602;28;20060;-77
2023/05/23 14:36:07;;;;;;;0.10;0.10;;;;;;;;;;5061849;28;20049;-77
2023/05/23 14:38:33;;;;;;;0.45;0.35;;;;;;;;;;5062716;28;20045;-76
2023/05/23 14:41:00;;;;;;;0.20;0.20;;;;;;;;;;5063129;28;20144;-76
2023/05/23 14:43:26;;;;;;;8.20;0.95;;;;;;;;;;5061874;28;20089;-78
2023/05/23 14:45:53;;;;;;;0.22;0.20;;;;;;;;;;5044687;28;20063;-78
2023/05/23 14:48:20;;;;;;;0.43;0.40;;;;;;;;;;5058345;28;20061;-75
2023/05/23 14:50:46;;;;;;;0.20;0.20;;;;;;;;;;5061802;28;20060;-77